Flugplatz Bad Windsheim (EDQB)

Hier findest Du alle Informationen zum Flugplatz Bad Windsheim (EDQB).

Informationen für Piloten zum Flugplatz Bad Windsheim

Hier findest Du alle relevanten Informationen, die Du als Pilot benötigst, um Bad Windsheim anzufliegen.

Flugplatz: Bad Windsheim ICAO-Code: EDQB
Frequenz Turm: 118,275 Mhz GAFOR Gebiet: 55
Frequenz Ground: 118,275 Mhz Mogas: nein
Platzrunde: N 2000 ft Landegebühr: -
Platzhöhe: - Sunrise: 06:48 Uhr UTC
Pisten: 08/26 - 690 m x 30 m, GRAS Sunset: 16:15 Uhr UTC

Flugwetter am Flugplatz Bad Windsheim

Die METAR Information stammen aus EDDN (51.45 km entfernt).

METAR Code:
2023/01/30 09:20
EDDN 300920Z AUTO 24013KT 3800 -SN BR FEW006 OVC012 00/M01 Q1017 RESN TEMPO 6000

Temperatur: 3,4 °C Niederschlag: - Wind: 16,0 kt (max.: 23,0 kt in Böen)
Temperatur (min.): 2,2 °C Luftdruck: 1004 hPa Windrichtung: 270 °
Temperatur (max.): 5,4 °C Luftfeuchtigkeit: 91 % Bewölkung: 8/8

Flugschulen am Flugplatz Bad Windsheim

Am Flugplatz Bad Windsheim gibt es leider keine Flugschule.

Benachbarte Flugplätze und Flugschulen

Es gibt 17 weitere Flugplätze in einem Umkreis von 50 km um den Flugplatz Bad Windsheim.

Jetzt anmelden

Passwort vergessen

Umfrage Archiv

Sendet Ihr ADS-B und/oder FLARM?

Ja
84.4 %
Nein
15.6 %
Stimmen: 276 | Diskussion
Anzeige: Roland Aircraft
Statistik Alle Mitglieder

Aktuell sind 68 Besucher online, davon 3 Mitglieder und 65 Gäste.


Mitglieder online:
Uli-Light  ronnski  aviatrix 

Anzeige: EasyVFR